createdAt,value
2019-03-10T00:00:23.963Z,1006.77
2019-03-10T00:01:23.933Z,1006.71
2019-03-10T00:02:23.900Z,1006.75
2019-03-10T00:03:23.868Z,1006.70
2019-03-10T00:04:23.835Z,1006.70
2019-03-10T00:05:23.804Z,1006.67
2019-03-10T00:06:23.773Z,1006.63
2019-03-10T00:07:23.740Z,1006.64
2019-03-10T00:08:23.709Z,1006.59
2019-03-10T00:09:23.678Z,1006.63
2019-03-10T00:10:23.648Z,1006.56
2019-03-10T00:11:23.614Z,1006.57
2019-03-10T00:12:23.582Z,1006.50
2019-03-10T00:13:23.551Z,1006.57
2019-03-10T00:14:23.519Z,1006.56
2019-03-10T00:15:23.496Z,1006.59
2019-03-10T00:16:23.455Z,1006.57
2019-03-10T00:17:23.424Z,1006.66
2019-03-10T00:18:23.393Z,1006.56
2019-03-10T00:19:23.358Z,1006.65
2019-03-10T00:20:23.329Z,1006.50
2019-03-10T00:21:23.295Z,1006.59
2019-03-10T00:22:23.266Z,1006.62
2019-03-10T00:23:23.232Z,1006.59
2019-03-10T00:24:23.201Z,1006.60
2019-03-10T00:25:23.168Z,1006.64
2019-03-10T00:26:23.139Z,1006.63
2019-03-10T00:27:23.105Z,1006.65
2019-03-10T00:28:23.073Z,1006.72
2019-03-10T00:29:23.042Z,1006.71
2019-03-10T00:30:23.012Z,1006.75
2019-03-10T00:31:22.983Z,1006.64
2019-03-10T00:32:22.947Z,1006.67
2019-03-10T00:33:22.914Z,1006.63
2019-03-10T00:34:22.884Z,1006.62
2019-03-10T00:35:22.854Z,1006.62
2019-03-10T00:36:22.819Z,1006.65
2019-03-10T00:37:22.786Z,1006.59
2019-03-10T00:38:22.756Z,1006.60
2019-03-10T00:39:22.724Z,1006.54
2019-03-10T00:40:22.693Z,1006.55
2019-03-10T00:41:22.661Z,1006.65
2019-03-10T00:42:22.629Z,1006.63
2019-03-10T00:43:22.597Z,1006.67
2019-03-10T00:44:22.567Z,1006.73
2019-03-10T00:45:22.533Z,1006.70
2019-03-10T00:46:22.502Z,1006.69
2019-03-10T00:47:22.471Z,1006.65
2019-03-10T00:48:22.438Z,1006.59
2019-03-10T00:49:22.408Z,1006.54
2019-03-10T00:50:22.377Z,1006.50
2019-03-10T00:51:22.343Z,1006.41
2019-03-10T00:52:22.312Z,1006.46
2019-03-10T00:53:22.280Z,1006.40
2019-03-10T00:54:22.250Z,1006.41
2019-03-10T00:55:22.217Z,1006.43
2019-03-10T00:56:22.186Z,1006.44
2019-03-10T00:57:22.153Z,1006.42
2019-03-10T00:58:22.126Z,1006.40
2019-03-10T00:59:22.089Z,1006.39
2019-03-10T01:00:22.063Z,1006.44
2019-03-10T01:01:22.027Z,1006.48
2019-03-10T01:02:21.998Z,1006.39
2019-03-10T01:03:21.963Z,1006.52
2019-03-10T01:04:21.931Z,1006.49
2019-03-10T01:05:21.901Z,1006.47
2019-03-10T01:06:21.869Z,1006.41
2019-03-10T01:07:21.835Z,1006.39
2019-03-10T01:08:21.807Z,1006.34
2019-03-10T01:09:21.773Z,1006.29
2019-03-10T01:10:21.741Z,1006.31
2019-03-10T01:11:21.709Z,1006.27
2019-03-10T01:12:21.678Z,1006.22
2019-03-10T01:13:21.645Z,1006.30
2019-03-10T01:14:21.615Z,1006.32
2019-03-10T01:15:21.585Z,1006.28
2019-03-10T01:16:21.551Z,1006.34
2019-03-10T01:17:21.518Z,1006.26
2019-03-10T01:18:21.489Z,1006.27
2019-03-10T01:19:21.454Z,1006.27
2019-03-10T01:20:21.423Z,1006.20
2019-03-10T01:21:21.393Z,1006.25
2019-03-10T01:22:21.360Z,1006.27
2019-03-10T01:23:21.329Z,1006.23
2019-03-10T01:24:21.319Z,1006.22
2019-03-10T01:25:21.266Z,1006.23
2019-03-10T01:26:21.233Z,1006.17
2019-03-10T01:27:21.201Z,1006.16
2019-03-10T01:28:21.167Z,1006.12
2019-03-10T01:29:21.135Z,1006.10
2019-03-10T01:30:21.111Z,1006.11
2019-03-10T01:31:21.071Z,1006.18
2019-03-10T01:32:21.040Z,1006.26
2019-03-10T01:33:21.012Z,1006.24
2019-03-10T01:34:20.978Z,1006.20
2019-03-10T01:35:20.950Z,1006.25
2019-03-10T01:36:20.916Z,1006.20
2019-03-10T01:37:20.882Z,1006.10
2019-03-10T01:38:20.853Z,1006.13
2019-03-10T01:39:20.818Z,1006.10
2019-03-10T01:40:20.785Z,1006.07
2019-03-10T01:41:20.753Z,1006.08
2019-03-10T01:42:20.729Z,1006.12
2019-03-10T01:43:20.690Z,1006.15
2019-03-10T01:44:20.657Z,1006.18
2019-03-10T01:45:20.627Z,1006.10
2019-03-10T01:46:20.597Z,1006.11
2019-03-10T01:47:20.594Z,1006.12
2019-03-10T01:48:20.531Z,1006.05
2019-03-10T01:49:20.500Z,1006.07
2019-03-10T01:50:20.470Z,1006.01
2019-03-10T01:51:20.436Z,1006.03
2019-03-10T01:52:20.405Z,1006.00
2019-03-10T01:53:25.647Z,1006.06
2019-03-10T01:54:20.373Z,1006.05
2019-03-10T01:55:20.309Z,1006.01
2019-03-10T01:56:20.279Z,1005.95
2019-03-10T01:57:20.247Z,1006.03
2019-03-10T01:58:20.215Z,1006.05
2019-03-10T01:59:20.183Z,1005.95
2019-03-10T02:00:20.154Z,1005.96
2019-03-10T02:01:20.120Z,1005.81
2019-03-10T02:02:25.751Z,1005.91
2019-03-10T02:03:20.057Z,1005.87
2019-03-10T02:04:20.026Z,1005.88
2019-03-10T02:05:19.994Z,1005.80
2019-03-10T02:06:19.963Z,1005.81
2019-03-10T02:07:19.933Z,1005.81
2019-03-10T02:08:19.900Z,1005.79
2019-03-10T02:09:19.868Z,1005.84
2019-03-10T02:10:19.836Z,1005.76
2019-03-10T02:11:19.808Z,1005.84
2019-03-10T02:12:19.774Z,1005.81
2019-03-10T02:13:19.742Z,1005.80
2019-03-10T02:14:19.717Z,1005.75
2019-03-10T02:15:19.681Z,1005.70
2019-03-10T02:16:19.649Z,1005.68
2019-03-10T02:17:19.617Z,1005.72
2019-03-10T02:18:19.588Z,1005.74
2019-03-10T02:19:19.555Z,1005.67
2019-03-10T02:20:19.524Z,1005.70
2019-03-10T02:21:19.493Z,1005.71
2019-03-10T02:22:19.463Z,1005.75
2019-03-10T02:23:19.430Z,1005.67
2019-03-10T02:24:23.661Z,1005.70
2019-03-10T02:25:19.369Z,1005.74
2019-03-10T02:26:19.338Z,1005.70
2019-03-10T02:27:19.306Z,1005.65
2019-03-10T02:28:19.275Z,1005.65
2019-03-10T02:29:19.244Z,1005.66
2019-03-10T02:30:19.215Z,1005.66
2019-03-10T02:31:19.185Z,1005.64
2019-03-10T02:32:19.162Z,1005.62
2019-03-10T02:33:19.121Z,1005.63
2019-03-10T02:34:19.094Z,1005.64
2019-03-10T02:35:19.058Z,1005.69
2019-03-10T02:36:19.028Z,1005.67
2019-03-10T02:37:18.998Z,1005.74
2019-03-10T02:38:18.966Z,1005.64
2019-03-10T02:39:18.933Z,1005.63
2019-03-10T02:40:18.912Z,1005.64
2019-03-10T02:41:18.873Z,1005.67
2019-03-10T02:42:18.843Z,1005.64
2019-03-10T02:43:18.810Z,1005.65
2019-03-10T02:44:18.780Z,1005.60
2019-03-10T02:45:18.749Z,1005.58
2019-03-10T02:46:18.719Z,1005.57
2019-03-10T02:47:18.685Z,1005.47
2019-03-10T02:48:18.655Z,1005.47
2019-03-10T02:49:18.624Z,1005.51
2019-03-10T02:50:18.594Z,1005.45
2019-03-10T02:51:18.562Z,1005.48
2019-03-10T02:52:18.567Z,1005.45
2019-03-10T02:53:18.501Z,1005.43
2019-03-10T02:54:18.470Z,1005.38
2019-03-10T02:55:18.439Z,1005.42
2019-03-10T02:56:18.408Z,1005.42
2019-03-10T02:57:18.375Z,1005.39
2019-03-10T02:58:18.353Z,1005.42
2019-03-10T02:59:18.313Z,1005.39
2019-03-10T03:00:18.290Z,1005.41
2019-03-10T03:01:18.252Z,1005.37
2019-03-10T03:02:18.246Z,1005.38
2019-03-10T03:03:18.201Z,1005.37
2019-03-10T03:04:18.158Z,1005.40
2019-03-10T03:05:18.127Z,1005.36
2019-03-10T03:06:18.096Z,1005.36
2019-03-10T03:07:18.067Z,1005.30
2019-03-10T03:08:18.036Z,1005.35
2019-03-10T03:09:18.009Z,1005.35
2019-03-10T03:10:17.971Z,1005.32
2019-03-10T03:11:17.943Z,1005.28
2019-03-10T03:12:17.910Z,1005.27
2019-03-10T03:13:17.880Z,1005.24
2019-03-10T03:14:17.857Z,1005.29
2019-03-10T03:15:17.820Z,1005.28
2019-03-10T03:16:17.830Z,1005.24
2019-03-10T03:17:17.756Z,1005.24
2019-03-10T03:18:17.723Z,1005.24
2019-03-10T03:19:17.692Z,1005.26
2019-03-10T03:20:17.726Z,1005.22
2019-03-10T03:21:17.632Z,1005.20
2019-03-10T03:22:17.601Z,1005.19
2019-03-10T03:23:17.567Z,1005.24
2019-03-10T03:24:17.537Z,1005.23
2019-03-10T03:25:17.508Z,1005.20
2019-03-10T03:26:17.482Z,1005.21
2019-03-10T03:27:17.453Z,1005.19
2019-03-10T03:28:17.420Z,1005.20
2019-03-10T03:29:17.386Z,1005.25
2019-03-10T03:30:17.354Z,1005.27
2019-03-10T03:31:17.326Z,1005.32
2019-03-10T03:32:17.292Z,1005.29
2019-03-10T03:33:17.274Z,1005.39
2019-03-10T03:34:17.232Z,1005.38
2019-03-10T03:35:17.198Z,1005.38
2019-03-10T03:36:17.170Z,1005.39
2019-03-10T03:37:17.141Z,1005.38
2019-03-10T03:38:17.119Z,1005.36
2019-03-10T03:39:17.076Z,1005.30
2019-03-10T03:40:17.043Z,1005.35
2019-03-10T03:41:17.013Z,1005.34
2019-03-10T03:42:16.984Z,1005.34
2019-03-10T03:43:16.954Z,1005.40
2019-03-10T03:44:16.921Z,1005.37
2019-03-10T03:45:16.890Z,1005.32
2019-03-10T03:46:16.862Z,1005.28
2019-03-10T03:47:16.828Z,1005.29
2019-03-10T03:48:16.799Z,1005.19
2019-03-10T03:49:16.770Z,1005.17
2019-03-10T03:50:16.740Z,1005.09
2019-03-10T03:51:16.712Z,1005.06
2019-03-10T03:52:16.683Z,1005.03
2019-03-10T03:53:16.643Z,1005.01
2019-03-10T03:54:16.614Z,1005.02
2019-03-10T03:55:16.593Z,1005.00
2019-03-10T03:56:16.560Z,1004.98
2019-03-10T03:57:16.522Z,1005.00
2019-03-10T03:58:16.497Z,1004.97
2019-03-10T03:59:16.461Z,1004.92
2019-03-10T04:00:16.443Z,1004.87
2019-03-10T04:01:16.421Z,1004.94
2019-03-10T04:02:16.373Z,1004.98
2019-03-10T04:03:16.337Z,1005.08
2019-03-10T04:04:16.316Z,1005.09
2019-03-10T04:05:16.280Z,1004.94
2019-03-10T04:06:16.249Z,1005.01
2019-03-10T04:07:16.222Z,1005.13
2019-03-10T04:08:16.196Z,1005.12
2019-03-10T04:09:16.154Z,1005.21
2019-03-10T04:10:16.129Z,1005.22
2019-03-10T04:11:16.091Z,1005.43
2019-03-10T04:12:16.061Z,1005.19
2019-03-10T04:13:16.030Z,1005.17
2019-03-10T04:14:15.999Z,1005.21
2019-03-10T04:15:15.967Z,1005.16
2019-03-10T04:16:15.938Z,1005.11
2019-03-10T04:17:15.906Z,1005.21
2019-03-10T04:18:15.876Z,1005.21
2019-03-10T04:19:15.846Z,1005.26
2019-03-10T04:20:15.813Z,1005.22
2019-03-10T04:21:15.784Z,1005.23
2019-03-10T04:22:15.753Z,1005.24
2019-03-10T04:23:15.721Z,1005.26
2019-03-10T04:24:15.690Z,1005.26
2019-03-10T04:25:15.660Z,1005.28
2019-03-10T04:26:15.631Z,1005.26
2019-03-10T04:27:15.597Z,1005.29
2019-03-10T04:28:15.567Z,1005.30
2019-03-10T04:29:15.537Z,1005.29
2019-03-10T04:30:15.506Z,1005.31
2019-03-10T04:31:15.476Z,1005.29
2019-03-10T04:32:15.444Z,1005.42
2019-03-10T04:33:15.413Z,1005.39
2019-03-10T04:34:15.389Z,1005.35
2019-03-10T04:35:15.352Z,1005.38
2019-03-10T04:36:15.321Z,1005.36
2019-03-10T04:37:15.290Z,1005.37
2019-03-10T04:38:15.259Z,1005.27
2019-03-10T04:39:15.229Z,1005.27
2019-03-10T04:40:15.197Z,1005.25
2019-03-10T04:41:15.170Z,1005.18
2019-03-10T04:42:15.140Z,1005.17
2019-03-10T04:43:15.107Z,1005.16
2019-03-10T04:44:15.075Z,1005.17
2019-03-10T04:45:15.044Z,1005.13
2019-03-10T04:46:15.035Z,1005.16
2019-03-10T04:47:14.981Z,1005.10
2019-03-10T04:48:14.960Z,1005.09
2019-03-10T04:49:14.920Z,1005.06
2019-03-10T04:50:16.411Z,1005.08
2019-03-10T04:51:14.858Z,1005.07
2019-03-10T04:52:14.828Z,1005.08
2019-03-10T04:53:14.798Z,1005.04
2019-03-10T04:54:14.767Z,1005.02
2019-03-10T04:55:14.735Z,1004.99
2019-03-10T04:56:14.709Z,1005.00
2019-03-10T04:57:14.674Z,1004.97
2019-03-10T04:58:14.644Z,1004.94
2019-03-10T04:59:14.611Z,1004.94
2019-03-10T05:00:14.580Z,1004.88
2019-03-10T05:01:14.549Z,1004.90
2019-03-10T05:02:14.518Z,1004.82
2019-03-10T05:03:14.486Z,1004.79
2019-03-10T05:04:14.457Z,1004.79
2019-03-10T05:05:14.425Z,1004.83
2019-03-10T05:06:14.397Z,1004.86
2019-03-10T05:07:14.362Z,1004.82
2019-03-10T05:08:14.333Z,1004.78
2019-03-10T05:09:14.301Z,1004.79
2019-03-10T05:10:14.270Z,1004.75
2019-03-10T05:11:14.240Z,1004.77
2019-03-10T05:12:14.207Z,1004.68
2019-03-10T05:13:14.179Z,1004.72
2019-03-10T05:14:14.146Z,1004.69
2019-03-10T05:15:14.114Z,1004.61
2019-03-10T05:16:14.083Z,1004.61
2019-03-10T05:17:14.054Z,1004.58
2019-03-10T05:18:14.021Z,1004.58
2019-03-10T05:19:13.989Z,1004.60
2019-03-10T05:20:13.959Z,1004.58
2019-03-10T05:21:13.929Z,1004.56
2019-03-10T05:22:13.897Z,1004.58
2019-03-10T05:23:13.865Z,1004.52
2019-03-10T05:24:13.834Z,1004.47
2019-03-10T05:25:13.802Z,1004.49
2019-03-10T05:26:13.772Z,1004.43
2019-03-10T05:27:13.740Z,1004.44
2019-03-10T05:28:13.708Z,1004.37
2019-03-10T05:29:13.679Z,1004.33
2019-03-10T05:30:13.648Z,1004.32
2019-03-10T05:31:13.615Z,1004.36
2019-03-10T05:32:13.584Z,1004.30
2019-03-10T05:33:13.554Z,1004.28
2019-03-10T05:34:13.525Z,1004.27
2019-03-10T05:35:13.490Z,1004.31
2019-03-10T05:36:13.458Z,1004.34
2019-03-10T05:37:13.431Z,1004.37
2019-03-10T05:38:13.397Z,1004.42
2019-03-10T05:39:13.366Z,1004.45
2019-03-10T05:40:13.335Z,1004.43
2019-03-10T05:41:13.305Z,1004.46
2019-03-10T05:42:13.277Z,1004.52
2019-03-10T05:43:13.241Z,1004.50
2019-03-10T05:44:13.214Z,1004.50
2019-03-10T05:45:13.184Z,1004.47
2019-03-10T05:46:13.148Z,1004.51
2019-03-10T05:47:13.118Z,1004.50
2019-03-10T05:48:13.086Z,1004.51
2019-03-10T05:49:13.055Z,1004.51
2019-03-10T05:50:13.024Z,1004.48
2019-03-10T05:51:12.992Z,1004.46
2019-03-10T05:52:12.962Z,1004.43
2019-03-10T05:53:12.931Z,1004.38
2019-03-10T05:54:12.899Z,1004.36
2019-03-10T05:55:12.868Z,1004.39
2019-03-10T05:56:12.837Z,1004.39
2019-03-10T05:57:12.807Z,1004.35
2019-03-10T05:58:12.777Z,1004.36
2019-03-10T05:59:12.746Z,1004.38
2019-03-10T06:00:12.714Z,1004.37
2019-03-10T06:01:12.686Z,1004.34
2019-03-10T06:02:12.654Z,1004.34
2019-03-10T06:03:12.621Z,1004.37
2019-03-10T06:04:12.592Z,1004.35
2019-03-10T06:05:12.564Z,1004.32
2019-03-10T06:06:12.531Z,1004.35
2019-03-10T06:07:12.501Z,1004.34
2019-03-10T06:08:12.469Z,1004.35
2019-03-10T06:09:12.440Z,1004.32
2019-03-10T06:10:12.409Z,1004.34
2019-03-10T06:11:12.379Z,1004.32
2019-03-10T06:12:12.348Z,1004.33
2019-03-10T06:13:12.318Z,1004.32
2019-03-10T06:14:12.286Z,1004.28
2019-03-10T06:15:12.256Z,1004.30
2019-03-10T06:16:12.227Z,1004.30
2019-03-10T06:17:12.195Z,1004.31
2019-03-10T06:18:13.944Z,1004.31
2019-03-10T06:19:12.139Z,1004.31
2019-03-10T06:20:12.105Z,1004.27
2019-03-10T06:21:12.073Z,1004.31
2019-03-10T06:22:12.043Z,1004.27
2019-03-10T06:23:12.015Z,1004.23
2019-03-10T06:24:11.982Z,1004.19
2019-03-10T06:25:11.966Z,1004.17
2019-03-10T06:26:11.922Z,1004.15
2019-03-10T06:27:11.890Z,1004.17
2019-03-10T06:28:11.860Z,1004.17
2019-03-10T06:29:11.832Z,1004.14
2019-03-10T06:30:11.801Z,1004.12
2019-03-10T06:31:11.770Z,1004.14
2019-03-10T06:32:11.739Z,1004.13
2019-03-10T06:33:11.711Z,1004.10
2019-03-10T06:34:11.686Z,1004.07
2019-03-10T06:35:11.649Z,1004.13
2019-03-10T06:36:11.616Z,1004.03
2019-03-10T06:37:11.588Z,1004.06
2019-03-10T06:38:11.563Z,1004.08
2019-03-10T06:39:11.526Z,1004.01
2019-03-10T06:40:11.496Z,1003.97
2019-03-10T06:41:11.465Z,1003.94
2019-03-10T06:42:11.435Z,1003.91
2019-03-10T06:43:11.404Z,1003.92
2019-03-10T06:44:11.375Z,1003.86
2019-03-10T06:45:11.343Z,1003.89
2019-03-10T06:46:11.313Z,1003.89
2019-03-10T06:47:11.283Z,1003.92
2019-03-10T06:48:11.254Z,1003.89
2019-03-10T06:49:11.223Z,1003.95
2019-03-10T06:50:12.422Z,1003.98
2019-03-10T06:51:11.162Z,1003.95
2019-03-10T06:52:11.132Z,1004.00
2019-03-10T06:53:11.102Z,1004.04
2019-03-10T06:54:11.074Z,1004.01
2019-03-10T06:55:11.102Z,1004.05
2019-03-10T06:56:11.013Z,1004.09
2019-03-10T06:57:10.987Z,1004.08
2019-03-10T06:58:10.952Z,1004.06
2019-03-10T06:59:10.920Z,1004.09
2019-03-10T07:00:10.891Z,1004.02
2019-03-10T07:01:10.863Z,1003.96
2019-03-10T07:02:10.831Z,1003.90
2019-03-10T07:03:10.802Z,1003.85
2019-03-10T07:04:10.772Z,1003.84
2019-03-10T07:05:10.741Z,1003.80
2019-03-10T07:06:10.712Z,1003.82
2019-03-10T07:07:10.681Z,1003.78
2019-03-10T07:08:10.652Z,1003.74
2019-03-10T07:09:10.622Z,1003.77
2019-03-10T07:10:10.591Z,1003.74
2019-03-10T07:11:10.564Z,1003.74
2019-03-10T07:12:10.533Z,1003.73
2019-03-10T07:13:10.505Z,1003.68
2019-03-10T07:14:10.476Z,1003.70
2019-03-10T07:15:10.449Z,1003.67
2019-03-10T07:16:10.418Z,1003.69
2019-03-10T07:17:10.388Z,1003.67
2019-03-10T07:18:10.361Z,1003.72
2019-03-10T07:19:10.331Z,1003.73
2019-03-10T07:20:10.307Z,1003.69
2019-03-10T07:21:10.286Z,1003.68
2019-03-10T07:22:10.248Z,1003.66
2019-03-10T07:23:10.221Z,1003.63
2019-03-10T07:24:10.191Z,1003.65
2019-03-10T07:25:10.163Z,1003.63
2019-03-10T07:26:10.136Z,1003.54
2019-03-10T07:27:10.113Z,1003.52
2019-03-10T07:28:10.079Z,1003.50
2019-03-10T07:29:10.052Z,1003.44
2019-03-10T07:30:10.026Z,1003.38
2019-03-10T07:31:09.997Z,1003.32
2019-03-10T07:32:09.973Z,1003.25
2019-03-10T07:33:09.950Z,1003.29
2019-03-10T07:34:09.915Z,1003.25
2019-03-10T07:35:09.887Z,1003.25
2019-03-10T07:36:09.858Z,1003.19
2019-03-10T07:37:09.839Z,1003.15
2019-03-10T07:38:09.807Z,1003.16
2019-03-10T07:39:09.825Z,1003.16
2019-03-10T07:40:09.747Z,1003.13
2019-03-10T07:41:09.724Z,1003.10
2019-03-10T07:42:09.692Z,1003.15
2019-03-10T07:43:09.664Z,1003.17
2019-03-10T07:44:09.636Z,1003.12
2019-03-10T07:45:09.608Z,1003.17
2019-03-10T07:46:09.584Z,1003.22
2019-03-10T07:47:09.554Z,1003.23
2019-03-10T07:48:09.527Z,1003.20
2019-03-10T07:49:09.499Z,1003.20
2019-03-10T07:50:09.486Z,1003.14
2019-03-10T07:51:09.451Z,1003.15
2019-03-10T07:52:19.559Z,1003.14
2019-03-10T07:53:09.396Z,1003.11
2019-03-10T07:54:09.375Z,1003.09
2019-03-10T07:55:09.346Z,1003.08
2019-03-10T07:56:11.425Z,1003.02
2019-03-10T07:57:09.297Z,1003.01
2019-03-10T07:58:09.271Z,1003.01
2019-03-10T07:59:09.249Z,1003.02
2019-03-10T08:00:09.221Z,1002.96
2019-03-10T08:01:09.195Z,1002.96
2019-03-10T08:02:09.172Z,1002.94
2019-03-10T08:03:09.150Z,1002.90
2019-03-10T08:04:09.122Z,1002.87
2019-03-10T08:05:09.098Z,1002.83
2019-03-10T08:06:09.075Z,1002.84
2019-03-10T08:07:09.051Z,1002.86
2019-03-10T08:08:09.028Z,1002.82
2019-03-10T08:09:09.003Z,1002.87
2019-03-10T08:10:08.980Z,1002.81
2019-03-10T08:11:08.956Z,1002.78
2019-03-10T08:12:08.933Z,1002.81
2019-03-10T08:13:08.910Z,1002.75
2019-03-10T08:14:08.886Z,1002.73
2019-03-10T08:15:08.864Z,1002.73
2019-03-10T08:16:08.838Z,1002.72
2019-03-10T08:17:08.815Z,1002.70
2019-03-10T08:18:08.793Z,1002.68
2019-03-10T08:19:08.770Z,1002.69
2019-03-10T08:20:08.745Z,1002.65
2019-03-10T08:21:08.722Z,1002.66
2019-03-10T08:22:08.699Z,1002.71
2019-03-10T08:23:08.675Z,1002.67
2019-03-10T08:24:08.652Z,1002.71
2019-03-10T08:25:08.632Z,1002.68
2019-03-10T08:26:08.604Z,1002.66
2019-03-10T08:27:08.881Z,1002.69
2019-03-10T08:28:08.556Z,1002.68
2019-03-10T08:29:08.533Z,1002.60
2019-03-10T08:30:08.507Z,1002.60
2019-03-10T08:31:08.483Z,1002.60
2019-03-10T08:32:08.458Z,1002.59
2019-03-10T08:33:08.436Z,1002.56
2019-03-10T08:34:08.413Z,1002.54
2019-03-10T08:35:08.395Z,1002.52
2019-03-10T08:36:08.364Z,1002.47
2019-03-10T08:37:08.340Z,1002.48
2019-03-10T08:38:08.316Z,1002.40
2019-03-10T08:39:08.293Z,1002.40
2019-03-10T08:40:08.268Z,1002.46
2019-03-10T08:41:08.245Z,1002.40
2019-03-10T08:42:08.222Z,1002.37
2019-03-10T08:43:08.197Z,1002.37
2019-03-10T08:44:08.174Z,1002.33
2019-03-10T08:45:08.168Z,1002.27
2019-03-10T08:46:08.127Z,1002.31
2019-03-10T08:47:08.103Z,1002.23
2019-03-10T08:48:08.081Z,1002.15
2019-03-10T08:49:08.059Z,1002.17
2019-03-10T08:50:08.034Z,1002.13
2019-03-10T08:51:08.011Z,1002.19
2019-03-10T08:52:07.989Z,1002.15
2019-03-10T08:53:07.966Z,1002.09
2019-03-10T08:54:07.942Z,1002.14
2019-03-10T08:55:07.917Z,1002.06
2019-03-10T08:56:07.896Z,1002.09
2019-03-10T08:57:07.872Z,1002.09
2019-03-10T08:58:07.849Z,1002.09
2019-03-10T08:59:07.824Z,1002.10
2019-03-10T09:00:07.800Z,1002.11
2019-03-10T09:01:10.100Z,1002.16
2019-03-10T09:02:07.755Z,1002.12
2019-03-10T09:03:07.731Z,1002.05
2019-03-10T09:04:07.707Z,1002.00
2019-03-10T09:05:07.685Z,1001.96
2019-03-10T09:06:07.661Z,1001.89
2019-03-10T09:07:07.636Z,1001.91
2019-03-10T09:08:07.613Z,1001.88
2019-03-10T09:09:07.588Z,1001.85
2019-03-10T09:10:07.564Z,1001.90
2019-03-10T09:11:07.540Z,1001.88
2019-03-10T09:12:07.532Z,1001.83
2019-03-10T09:13:07.489Z,1001.80
2019-03-10T09:14:07.467Z,1001.74
2019-03-10T09:15:07.441Z,1001.74
2019-03-10T09:16:07.416Z,1001.72
2019-03-10T09:17:07.392Z,1001.74
2019-03-10T09:18:07.367Z,1001.69
2019-03-10T09:19:07.347Z,1001.80
2019-03-10T09:20:07.317Z,1001.73
2019-03-10T09:21:07.292Z,1001.73
2019-03-10T09:22:07.268Z,1001.69
2019-03-10T09:23:07.241Z,1001.71
2019-03-10T09:24:07.218Z,1001.66
2019-03-10T09:25:07.191Z,1001.62
2019-03-10T09:26:07.166Z,1001.61
2019-03-10T09:27:07.139Z,1001.56
2019-03-10T09:28:07.113Z,1001.61
2019-03-10T09:29:07.099Z,1001.56
2019-03-10T09:30:07.065Z,1001.55
2019-03-10T09:31:07.036Z,1001.51
2019-03-10T09:32:07.010Z,1001.50
2019-03-10T09:33:06.985Z,1001.50
2019-03-10T09:34:06.960Z,1001.56
2019-03-10T09:35:06.934Z,1001.53
2019-03-10T09:36:06.907Z,1001.52
2019-03-10T09:37:06.881Z,1001.48
2019-03-10T09:38:06.856Z,1001.46
2019-03-10T09:39:06.828Z,1001.47
2019-03-10T09:40:06.801Z,1001.49
2019-03-10T09:41:06.775Z,1001.43
2019-03-10T09:42:06.747Z,1001.46
2019-03-10T09:43:06.722Z,1001.45
2019-03-10T09:44:06.795Z,1001.45
2019-03-10T09:45:06.668Z,1001.38
2019-03-10T09:46:06.643Z,1001.38
2019-03-10T09:47:06.614Z,1001.35
2019-03-10T09:48:06.589Z,1001.37
2019-03-10T09:49:06.564Z,1001.34
2019-03-10T09:50:06.537Z,1001.30
2019-03-10T09:51:06.508Z,1001.31
2019-03-10T09:52:06.535Z,1001.32
2019-03-10T09:53:06.457Z,1001.32
2019-03-10T09:54:06.481Z,1001.26
2019-03-10T09:55:06.402Z,1001.26
2019-03-10T09:56:06.374Z,1001.27
2019-03-10T09:57:06.351Z,1001.22
2019-03-10T09:58:06.321Z,1001.24
2019-03-10T09:59:06.294Z,1001.18
2019-03-10T10:00:06.270Z,1001.20
2019-03-10T10:01:06.239Z,1001.22
2019-03-10T10:02:06.213Z,1001.15
2019-03-10T10:03:06.185Z,1001.12
2019-03-10T10:04:06.157Z,1001.13
2019-03-10T10:05:06.131Z,1001.11
2019-03-10T10:06:06.105Z,1001.08
2019-03-10T10:07:06.077Z,1001.10
2019-03-10T10:08:06.051Z,1001.11
2019-03-10T10:09:06.023Z,1001.10
2019-03-10T10:10:05.996Z,1001.07
2019-03-10T10:11:05.969Z,1001.09
2019-03-10T10:12:13.378Z,1001.10
2019-03-10T10:13:05.916Z,1001.07
2019-03-10T10:14:05.890Z,1001.02
2019-03-10T10:15:05.861Z,1001.05
2019-03-10T10:16:05.837Z,1001.03
2019-03-10T10:17:05.811Z,1001.01
2019-03-10T10:18:05.784Z,1000.97
2019-03-10T10:19:05.755Z,1000.97
2019-03-10T10:20:05.732Z,1000.93
2019-03-10T10:21:05.702Z,1000.94
2019-03-10T10:22:05.677Z,1000.90
2019-03-10T10:23:05.649Z,1000.89
2019-03-10T10:24:05.625Z,1000.84
2019-03-10T10:25:05.598Z,1000.91
2019-03-10T10:26:05.569Z,1000.85
2019-03-10T10:27:05.545Z,1000.84
2019-03-10T10:28:05.518Z,1000.83
2019-03-10T10:29:05.492Z,1000.87
2019-03-10T10:30:05.465Z,1000.84
2019-03-10T10:31:05.438Z,1000.76
2019-03-10T10:32:05.411Z,1000.74
2019-03-10T10:33:05.386Z,1000.70
2019-03-10T10:34:05.363Z,1000.67
2019-03-10T10:35:05.332Z,1000.64
2019-03-10T10:36:05.307Z,1000.57
2019-03-10T10:37:05.282Z,1000.52
2019-03-10T10:38:05.256Z,1000.54
2019-03-10T10:39:05.235Z,1000.53
2019-03-10T10:40:05.204Z,1000.50
2019-03-10T10:41:05.177Z,1000.46
2019-03-10T10:42:05.152Z,1000.44
2019-03-10T10:43:05.126Z,1000.40
2019-03-10T10:44:05.099Z,1000.39
2019-03-10T10:45:05.073Z,1000.32
2019-03-10T10:46:05.048Z,1000.26
2019-03-10T10:47:05.023Z,1000.23
2019-03-10T10:48:04.994Z,1000.18
2019-03-10T10:49:04.974Z,1000.16
2019-03-10T10:50:04.948Z,1000.16
2019-03-10T10:51:04.925Z,1000.12
2019-03-10T10:52:04.890Z,1000.11
2019-03-10T10:53:04.877Z,1000.13
2019-03-10T10:54:04.841Z,1000.09
2019-03-10T10:55:04.824Z,1000.07
2019-03-10T10:56:04.837Z,1000.01
2019-03-10T10:57:04.778Z,1000.05
2019-03-10T10:58:05.630Z,1000.01
2019-03-10T10:59:04.713Z,1000.00
2019-03-10T11:00:04.687Z,999.98
2019-03-10T11:01:04.661Z,999.99
2019-03-10T11:02:04.638Z,999.95
2019-03-10T11:03:04.611Z,999.94
2019-03-10T11:04:04.584Z,999.88
2019-03-10T11:05:04.562Z,999.88
2019-03-10T11:06:04.535Z,999.89
2019-03-10T11:07:04.509Z,999.83
2019-03-10T11:08:04.484Z,999.81
2019-03-10T11:09:04.461Z,999.82
2019-03-10T11:10:04.437Z,999.84
2019-03-10T11:11:04.418Z,999.77
2019-03-10T11:12:04.384Z,999.80
2019-03-10T11:13:04.359Z,999.78
2019-03-10T11:14:04.335Z,999.77
2019-03-10T11:15:04.312Z,999.76
2019-03-10T11:16:04.286Z,999.69
2019-03-10T11:17:04.261Z,999.63
2019-03-10T11:18:09.303Z,999.58
2019-03-10T11:19:04.212Z,999.63
2019-03-10T11:20:04.186Z,999.59
2019-03-10T11:21:04.166Z,999.65
2019-03-10T11:22:04.143Z,999.64
2019-03-10T11:23:04.112Z,999.63
2019-03-10T11:24:04.091Z,999.60
2019-03-10T11:25:04.069Z,999.57
2019-03-10T11:26:04.038Z,999.56
2019-03-10T11:27:04.013Z,999.56
2019-03-10T11:28:03.989Z,999.53
2019-03-10T11:29:04.138Z,999.47
2019-03-10T11:30:03.942Z,999.45
2019-03-10T11:31:03.919Z,999.44
2019-03-10T11:32:03.893Z,999.41
2019-03-10T11:33:03.869Z,999.39
2019-03-10T11:34:03.845Z,999.40
2019-03-10T11:35:03.821Z,999.36
2019-03-10T11:36:03.792Z,999.28
2019-03-10T11:37:03.769Z,999.24
2019-03-10T11:38:03.743Z,999.13
2019-03-10T11:39:03.723Z,999.12
2019-03-10T11:40:03.702Z,999.09
2019-03-10T11:41:03.671Z,999.08
2019-03-10T11:42:03.649Z,999.09
2019-03-10T11:43:03.626Z,999.06
2019-03-10T11:44:03.596Z,999.02
2019-03-10T11:45:03.577Z,998.97
2019-03-10T11:46:03.549Z,998.91
2019-03-10T11:47:03.524Z,998.92
2019-03-10T11:48:03.499Z,998.90
2019-03-10T11:49:03.475Z,998.89
2019-03-10T11:50:03.454Z,998.91
2019-03-10T11:51:03.427Z,998.88
2019-03-10T11:52:03.401Z,998.85
2019-03-10T11:53:03.377Z,998.80
2019-03-10T11:54:03.353Z,998.86
2019-03-10T11:55:03.370Z,998.82
2019-03-10T11:56:03.303Z,998.79
2019-03-10T11:57:03.280Z,998.78
2019-03-10T11:58:03.254Z,998.81
2019-03-10T11:59:03.233Z,998.76
2019-03-10T12:00:03.209Z,998.70
2019-03-10T12:01:03.188Z,998.70
2019-03-10T12:02:03.160Z,998.69
2019-03-10T12:03:03.134Z,998.68
2019-03-10T12:04:03.110Z,998.64
2019-03-10T12:05:03.085Z,998.65
2019-03-10T12:06:03.062Z,998.67
2019-03-10T12:07:03.035Z,998.66